Latest Weather Observations for Rhyll

IDV60901

Issued at 11:11 pm EDT Sunday 26 February 2017 (issued every 10 minutes, with the page automatically refreshed every 10 minutes)

About weather observations | Map of Melbourne area stations | Latest observations for Melbourne area | Other Formats
Station Details ID: 086373 Name: RHYLL Lat: -38.46 Lon: 145.31 Height: 13.4 m
Data from the previous 72 hours. | See also: Recent months at Rhyll
Date/Time
EDT
Temp
°C
App
Temp
°C
Dew
Point
°C
Rel
Hum
%
Delta-T
°C
Wind Press
QNH
hPa
Press
MSL
hPa
Rain since
9am
mm
Dir  Spd
km/h
Gust
km/h
Spd
kts
Gust
kts
26/11:00pm 18.6 14.5 12.8 69 3.2 ENE 26 32 14 17 1021.8 1021.8 0.0
26/10:30pm 18.9 14.0 12.6 67 3.5 ENE 30 35 16 19 1021.8 1021.8 0.0
26/10:00pm 19.3 14.5 13.0 67 3.5 ENE 30 35 16 19 1021.7 1021.7 0.0
26/09:30pm 19.9 14.7 12.9 64 4.0 ENE 32 39 17 21 1021.5 1021.5 0.0
26/09:00pm 20.0 17.4 13.7 67 3.6 E 20 26 11 14 1021.3 1021.3 0.0
26/08:30pm 20.4 17.5 14.1 67 3.6 E 22 26 12 14 1020.7 1020.7 0.0
26/08:00pm 21.1 17.2 14.5 66 3.9 E 28 32 15 17 1020.4 1020.4 0.0
26/07:30pm 22.1 17.5 14.5 62 4.5 E 32 39 17 21 1020.1 1020.1 0.0
26/07:00pm 22.7 18.2 14.8 61 4.7 ESE 32 37 17 20 1019.8 1019.8 0.0
26/06:30pm 23.2 18.9 15.3 61 4.7 ESE 32 37 17 20 1019.6 1019.5 0.0
26/06:00pm 23.6 19.3 15.4 60 4.9 ESE 32 41 17 22 1019.6 1019.5 0.0
26/05:30pm 24.1 19.6 15.3 58 5.3 ESE 33 37 18 20 1019.3 1019.2 0.0
26/05:00pm 24.6 22.7 15.2 55 5.6 SE 19 35 10 19 1019.3 1019.2 0.0
26/04:30pm 26.2 25.8 15.3 51 6.6 SSE 11 20 6 11 1019.6 1019.5 0.0
26/04:00pm 26.6 26.2 12.3 41 8.2 S 6 7 3 4 1019.8 1019.8 0.0
26/03:30pm 27.1 26.9 15.8 50 6.9 ENE 11 13 6 7 1020.0 1020.0 0.0
26/03:00pm 26.7 26.0 15.4 50 6.9 ENE 13 13 7 7 1020.3 1020.3 0.0
26/02:30pm 26.7 26.1 14.5 47 7.3 NE 11 15 6 8 1020.7 1020.7 0.0
26/02:00pm 26.0 24.5 15.4 52 6.4 NE 17 20 9 11 1020.9 1020.9 0.0
26/01:30pm 25.3 23.3 13.8 49 6.8 NE 17 19 9 10 1021.0 1021.0 0.0
26/01:00pm 25.6 23.5 13.5 47 7.1 NE 17 20 9 11 1021.3 1021.3 0.0
26/12:30pm 26.3 25.5 15.0 49 6.8 NE 13 17 7 9 1021.7 1021.7 0.0
26/12:00pm 24.9 22.8 13.5 49 6.6 NE 17 19 9 10 1021.9 1021.9 0.0
26/11:30am 24.3 22.5 14.4 54 5.9 ENE 17 20 9 11 1022.2 1022.2 0.0
26/11:00am 24.3 23.0 13.8 52 6.1 ENE 13 20 7 11 1022.3 1022.3 0.0
26/10:30am 23.9 23.1 12.8 49 6.4 NE 9 13 5 7 1022.4 1022.4 0.0
26/10:00am 22.2 20.6 12.7 55 5.4 ENE 13 19 7 10 1022.3 1022.3 0.0
26/09:30am 20.8 18.3 12.2 58 4.8 E 17 22 9 12 1022.2 1022.2 0.0
26/09:00am 19.5 17.6 13.0 66 3.7 ESE 15 19 8 10 1022.3 1022.3 0.0
26/08:30am 17.9 14.4 12.1 69 3.2 ESE 22 26 12 14 1022.1 1022.1 0.0
26/08:00am 17.4 14.2 11.9 70 3.0 ESE 20 24 11 13 1021.9 1021.9 0.0
26/07:30am 16.5 13.3 11.9 74 2.5 ESE 20 24 11 13 1021.6 1021.6 0.0
26/07:00am 16.2 12.3 12.0 76 2.3 ESE 24 30 13 16 1021.4 1021.4 0.0
26/06:30am 16.2 12.3 12.2 77 2.2 ESE 24 30 13 16 1021.2 1021.2 0.0
26/06:00am 16.2 11.6 12.2 77 2.2 ESE 28 35 15 19 1021.1 1021.1 0.0
26/05:30am 16.0 10.9 12.0 77 2.2 ESE 30 33 16 18 1020.7 1020.7 0.0
26/05:00am 16.1 11.5 12.3 78 2.1 ESE 28 32 15 17 1020.9 1020.9 0.0
26/04:30am 15.9 12.1 12.5 80 1.9 ESE 24 30 13 16 1020.8 1020.8 0.0
26/04:00am 16.1 12.0 12.7 80 1.9 ESE 26 33 14 18 1020.8 1020.8 0.0
26/03:30am 16.3 11.1 12.8 80 1.9 ESE 32 35 17 19 1021.0 1021.0 0.0
26/03:00am 16.3 11.0 13.0 81 1.8 ESE 33 39 18 21 1021.8 1021.8 0.0
26/02:30am 16.3 12.1 13.4 83 1.6 ESE 28 37 15 20 1021.9 1021.9 0.0
26/02:00am 16.3 13.1 13.2 82 1.7 SE 22 33 12 18 1022.1 1022.1 0.0
26/01:30am 16.7 12.5 13.4 81 1.9 ESE 28 35 15 19 1022.3 1022.3 0.0
26/01:00am 16.8 11.9 13.7 82 1.7 ESE 32 37 17 20 1022.1 1022.1 0.0
26/12:30am 16.8 11.9 13.7 82 1.8 ESE 32 37 17 20 1022.6 1022.6 0.0
26/12:00am 16.8 11.8 13.9 83 1.6 ESE 33 39 18 21 1022.8 1022.8 0.0
 
Date/Time
EDT
Temp
°C
App
Temp
°C
Dew
Point
°C
Rel
Hum
%
Delta-T
°C
Wind Press
QNH
hPa
Press
MSL
hPa
Rain since
9am
mm
Dir  Spd
km/h
Gust
km/h
Spd
kts
Gust
kts
25/11:30pm 16.8 11.4 13.9 83 1.6 ESE 35 41 19 22 1022.8 1022.8 0.0
25/11:00pm 16.8 12.0 13.9 83 1.6 ESE 32 41 17 22 1022.6 1022.6 0.0
25/10:30pm 16.9 11.9 14.0 83 1.6 ESE 33 41 18 22 1022.7 1022.7 0.0
25/10:00pm 17.0 11.7 14.1 83 1.6 ESE 35 43 19 23 1022.8 1022.8 0.0
25/09:30pm 17.1 12.2 14.2 83 1.7 ESE 33 39 18 21 1022.6 1022.6 0.0
25/09:00pm 17.4 11.7 14.3 82 1.8 ESE 37 46 20 25 1022.1 1022.1 0.0
25/08:30pm 17.7 12.3 14.0 79 2.1 ESE 35 43 19 23 1021.7 1021.7 0.0
25/08:00pm 18.1 12.4 14.2 78 2.2 ESE 37 44 20 24 1021.5 1021.5 0.0
25/07:59pm 18.0 12.2 13.9 77 2.3 ESE 37 44 20 24 1021.5 1021.5 0.0
25/07:30pm 18.2 16.3 15.1 82 1.8 SSE 19 26 10 14 1021.8 1021.8 0.0
25/07:00pm 17.9 14.4 14.6 81 1.9 SSE 26 33 14 18 1021.8 1021.8 0.0
25/06:30pm 18.6 15.5 14.5 77 2.4 SE 24 33 13 18 1021.9 1021.9 0.0
25/06:00pm 19.9 18.0 14.3 70 3.2 S 17 28 9 15 1021.8 1021.8 0.0
25/05:30pm 19.6 16.6 12.6 64 3.9 S 20 26 11 14 1022.0 1022.0 0.0
25/05:00pm 20.1 17.6 12.3 61 4.4 S 17 26 9 14 1022.3 1022.3 0.0
25/04:30pm 19.4 16.6 11.4 60 4.4 S 17 28 9 15 1022.7 1022.7 0.0
25/04:00pm 20.9 18.8 11.3 54 5.3 S 13 20 7 11 1022.8 1022.8 0.0
25/03:30pm 20.0 18.0 10.1 53 5.3 S 11 19 6 10 1022.7 1022.7 0.0
25/03:00pm 20.2 18.8 10.9 55 5.1 S 9 15 5 8 1022.9 1022.9 0.0
25/02:30pm 19.3 17.7 8.9 51 5.4 S 7 11 4 6 1023.0 1023.0 0.0
25/02:00pm 18.7 16.9 7.8 49 5.5 SSE 7 11 4 6 1023.4 1023.4 0.0
25/01:30pm 18.7 16.6 8.1 50 5.4 SSE 9 13 5 7 1023.8 1023.8 0.0
25/01:00pm 19.1 17.7 9.6 54 5.0 S 7 13 4 7 1024.2 1024.2 0.0
25/12:30pm 18.6 16.7 7.7 49 5.6 SSE 7 11 4 6 1024.5 1024.5 0.0
25/12:00pm 19.1 17.2 7.5 47 5.9 S 7 15 4 8 1025.0 1025.0 0.0
25/11:30am 18.7 16.9 8.1 50 5.4 S 7 13 4 7 1025.2 1025.2 0.0
25/11:00am 17.6 15.8 7.9 53 4.9 S 7 13 4 7 1025.2 1025.2 0.0
25/10:30am 18.2 16.1 8.2 52 5.1 S 9 19 5 10 1025.4 1025.4 0.0
25/10:00am 17.7 15.7 8.6 55 4.7 S 9 17 5 9 1025.4 1025.4 0.0
25/09:30am 15.7 13.3 7.0 56 4.3 S 9 17 5 9 1025.4 1025.4 0.0
25/09:00am 15.8 13.5 7.6 58 4.1 S 9 19 5 10 1025.4 1025.4 0.0
25/08:30am 15.8 13.7 8.1 60 3.9 SSE 9 15 5 8 1025.2 1025.2 0.0
25/08:00am 15.1 12.1 7.9 62 3.6 S 13 19 7 10 1024.9 1024.9 0.0
25/07:30am 14.2 11.6 7.9 66 3.1 S 11 19 6 10 1024.7 1024.7 0.0
25/07:00am 14.0 11.5 8.0 67 3.0 S 11 20 6 11 1024.5 1024.5 0.0
25/06:30am 14.0 11.1 8.0 67 3.0 SSE 13 20 7 11 1024.3 1024.3 0.0
25/06:00am 14.3 11.4 8.0 66 3.1 S 13 20 7 11 1024.2 1024.2 0.0
25/05:30am 14.4 11.1 7.9 65 3.2 S 15 28 8 15 1024.1 1024.1 0.0
25/05:00am 14.3 10.8 7.1 62 3.5 S 15 20 8 11 1024.1 1024.1 0.0
25/04:30am 14.3 10.7 6.9 61 3.6 S 15 24 8 13 1024.2 1024.2 0.0
25/04:00am 14.5 11.2 8.0 65 3.2 S 15 26 8 14 1024.3 1024.3 0.0
25/03:30am 14.4 11.4 7.9 65 3.2 S 13 20 7 11 1024.5 1024.5 0.0
25/03:00am 14.9 11.6 7.9 63 3.5 S 15 26 8 14 1024.6 1024.6 0.0
25/02:30am 14.9 11.8 8.8 67 3.1 S 15 22 8 12 1024.7 1024.7 0.0
25/02:00am 14.9 11.7 8.6 66 3.2 S 15 28 8 15 1025.0 1025.0 0.0
25/01:30am 15.1 11.9 8.3 64 3.4 S 15 28 8 15 1025.1 1025.1 0.0
25/01:00am 15.2 12.1 8.9 66 3.2 S 15 24 8 13 1025.1 1025.1 0.0
25/12:30am 15.2 13.2 10.0 71 2.7 S 11 19 6 10 1025.1 1025.1 0.0
25/12:00am 15.9 13.8 11.1 73 2.6 S 13 24 7 13 1025.1 1025.1 0.0
 
Date/Time
EDT
Temp
°C
App
Temp
°C
Dew
Point
°C
Rel
Hum
%
Delta-T
°C
Wind Press
QNH
hPa
Press
MSL
hPa
Rain since
9am
mm
Dir  Spd
km/h
Gust
km/h
Spd
kts
Gust
kts
24/11:30pm 16.1 13.7 10.0 67 3.2 S 13 22 7 12 1025.3 1025.3 0.0
24/11:00pm 16.0 13.6 10.1 68 3.1 S 13 20 7 11 1025.4 1025.4 0.0
24/10:30pm 16.0 13.9 9.9 67 3.2 SSW 11 19 6 10 1025.6 1025.6 0.0
24/10:00pm 15.9 13.4 9.8 67 3.2 S 13 19 7 10 1025.8 1025.8 0.0
24/09:30pm 16.2 13.4 8.7 61 3.8 S 13 24 7 13 1025.8 1025.8 0.0
24/09:00pm 16.5 13.6 9.7 64 3.5 S 15 24 8 13 1025.5 1025.5 0.0
24/08:30pm 16.5 13.9 9.2 62 3.8 SSW 13 22 7 12 1025.3 1025.3 0.0
24/08:00pm 16.6 14.2 10.2 66 3.4 SSW 13 24 7 13 1025.0 1025.0 0.0
24/07:30pm 16.9 14.8 11.2 69 3.1 SSW 13 22 7 12 1025.0 1025.0 0.0
24/07:00pm 17.1 15.0 9.8 62 3.8 SSW 11 20 6 11 1024.8 1024.8 0.0
24/06:30pm 17.4 14.9 9.8 61 4.0 SSW 13 20 7 11 1024.9 1024.9 0.0
24/06:00pm 17.8 15.4 9.9 60 4.2 SSW 13 24 7 13 1024.8 1024.8 0.0
24/05:30pm 17.8 14.8 9.4 58 4.4 SW 15 22 8 12 1024.8 1024.8 0.0
24/05:00pm 17.6 15.1 9.8 60 4.1 SSW 13 20 7 11 1024.8 1024.8 0.0
24/04:30pm 18.3 15.4 9.6 57 4.6 SSW 15 22 8 12 1024.7 1024.7 0.0
24/04:00pm 18.6 15.6 9.1 54 4.9 SSW 15 28 8 15 1024.9 1024.9 0.0
24/03:30pm 18.4 15.3 8.9 54 4.9 SSW 15 24 8 13 1025.0 1025.0 0.0
24/03:00pm 17.8 15.4 9.9 60 4.2 SSW 13 20 7 11 1025.2 1025.2 0.0
24/02:30pm 17.9 14.5 9.3 57 4.5 SSW 17 30 9 16 1025.2 1025.2 0.0
24/02:00pm 17.8 14.7 8.9 56 4.6 SSW 15 22 8 12 1025.3 1025.3 0.0
24/01:30pm 17.1 14.4 9.0 59 4.2 SW 13 22 7 12 1025.3 1025.3 0.0
24/01:00pm 17.3 14.3 7.9 54 4.7 SSW 13 22 7 12 1025.2 1025.2 0.0
24/12:30pm 17.3 14.8 8.2 55 4.6 SSW 11 19 6 10 1025.3 1025.3 0.0
24/12:00pm 17.5 14.2 8.1 54 4.8 SSW 15 22 8 12 1025.5 1025.5 0.0
24/11:30am 17.8 14.6 8.6 55 4.7 SSW 15 26 8 14 1025.3 1025.3 0.0
24/11:00am 17.2 13.5 7.8 54 4.7 SSW 17 26 9 14 1025.4 1025.4 0.0
24/10:30am 17.1 14.2 8.3 56 4.5 SSW 13 22 7 12 1025.2 1025.2 0.0
24/10:00am 17.2 14.5 8.9 58 4.3 S 13 24 7 13 1024.9 1024.9 0.0
24/09:30am 17.3 14.6 9.0 58 4.3 S 13 22 7 12 1024.5 1024.5 0.0
24/09:00am 16.8 13.6 8.5 58 4.2 SSW 15 24 8 13 1024.3 1024.3 0.0
24/08:30am 16.4 12.9 8.6 60 4.0 SSW 17 26 9 14 1024.0 1024.0 0.0
24/08:00am 16.2 12.7 8.9 62 3.7 SSW 17 24 9 13 1023.6 1023.6 0.0
24/07:30am 16.0 13.3 9.0 63 3.6 SW 13 22 7 12 1023.6 1023.6 0.0
24/07:00am 15.9 13.6 9.1 64 3.5 SW 11 19 6 10 1023.4 1023.4 0.0
24/06:30am 16.1 13.5 9.3 64 3.5 SW 13 24 7 13 1023.0 1023.0 0.0
24/06:00am 16.2 14.2 10.1 67 3.2 SW 11 20 6 11 1022.7 1022.7 0.0
24/05:30am 16.2 14.7 10.7 70 2.9 SW 9 15 5 8 1022.5 1022.5 0.0
24/05:00am 16.1 14.4 11.3 73 2.6 SW 11 15 6 8 1022.2 1022.2 0.0
24/04:30am 15.7 15.0 11.5 76 2.3 SW 6 9 3 5 1022.3 1022.3 0.0
24/04:00am 15.5 14.3 11.5 77 2.1 SW 9 15 5 8 1022.4 1022.4 0.0
24/03:30am 16.3 15.4 11.5 73 2.6 SW 7 15 4 8 1022.5 1022.5 0.0
24/03:00am 16.0 15.2 11.6 75 2.4 SW 7 15 4 8 1022.6 1022.6 0.0
24/02:30am 16.8 15.7 11.9 73 2.7 SSW 9 17 5 9 1022.6 1022.6 0.0
24/02:00am 15.9 16.0 12.6 81 1.8 SW 4 11 2 6 1022.7 1022.7 0.0
24/01:30am 16.9 15.8 12.0 73 2.7 SSW 9 20 5 11 1023.0 1023.0 0.0
24/01:00am 16.9 15.9 12.4 75 2.5 SSW 9 17 5 9 1022.9 1022.9 0.0
24/12:30am 17.1 16.2 12.6 75 2.5 SSW 9 17 5 9 1022.9 1022.9 0.0
24/12:00am 17.1 16.6 12.8 76 2.4 S 7 13 4 7 1022.8 1022.8 0.0
 
Date/Time
EDT
Temp
°C
App
Temp
°C
Dew
Point
°C
Rel
Hum
%
Delta-T
°C
Wind Press
QNH
hPa
Press
MSL
hPa
Rain since
9am
mm
Dir  Spd
km/h
Gust
km/h
Spd
kts
Gust
kts
23/11:30pm 17.1 15.8 12.6 75 2.5 SSW 11 17 6 9 1022.9 1022.9 0.0

Latest Capital City Observations: Canberra | Sydney | Melbourne | Brisbane | Adelaide | Perth | Hobart | Darwin

Other Formats:

Comma delimited format used in spreadsheet applications
http://www.bom.gov.au/fwo/IDV60901/IDV60901.94892.axf

JavaScript Object Notation format (JSON) in row-major order
http://www.bom.gov.au/fwo/IDV60901/IDV60901.94892.json